HVRO2: Wildhorse Creek Nr Hoover, OK

Data processed at Mon 03Oct2022 03:50 GMT


All information presented herein is the property of the government of the United States of America and may be revised or deleted at any time without prior notice.
Dissemination of this information without the expressed written consent of the Public Affairs Office, Tulsa District U.S. Army Corps of Engineers is strictly prohibited.
These data are gathered electronically and, as presented, have not undergone any form of quality control. These data are not guaranteed to be valid or correct.
Go to home page.
Go to station list.

Downstream station:


Previous Day
Next Day
Current Day


                            
SHEF ID:       HVRO2     Wildhorse Creek near Hoover, OK
STATION TYPE:  
Regulating: Stage =    25.00, Flow =    23900

               PRECIP     STAGE  RIV-FLOW
                   in        ft       cfs
              Ccp-Rev   Ccp-Rev   Ccp-Rev
(US/Central)
10/02 00:00      0.00     13.38      4490
10/02 01:00      0.00     14.93      6230
10/02 02:00      0.00     15.47      6900
10/02 03:00      0.00     15.90      7470
10/02 04:00      0.00     16.12      7760
10/02 05:00      0.00     16.44      8200
10/02 06:00      0.00     16.57      8380
10/02 07:00      0.00     16.76      8650
10/02 08:00      0.00     16.88      8830
10/02 09:00      0.00     16.95      8930
10/02 10:00      0.00     15.54      6990
10/02 11:00      0.00     12.23      3380
10/02 12:00      0.00     11.68      2910
10/02 13:00      0.00     11.17      2510
10/02 14:00      0.00     11.10      2460
10/02 15:00      0.00     11.06      2430
10/02 16:00      0.00     11.02      2400
10/02 17:00      0.00     11.01      2390
10/02 18:00      0.00     11.00      2380
10/02 19:00      0.00     10.98      2370
10/02 20:00      0.00     11.11      2470
10/02 21:00      0.00     11.49      2760
10/02 22:00      0.00     12.02      3200
10/02 23:00      ----      ----      ----